sensor_id;sensor_type;location;lat;lon;timestamp;pressure;altitude;pressure_sealevel;temperature
48003;BMP280;33768;48.578;11.574;2023-10-09T00:01:21;97136.59;;;12.89
48003;BMP280;33768;48.578;11.574;2023-10-09T00:04:25;97134.47;;;12.82
48003;BMP280;33768;48.578;11.574;2023-10-09T00:07:30;97132.38;;;12.76
48003;BMP280;33768;48.578;11.574;2023-10-09T00:10:35;97128.94;;;12.70
48003;BMP280;33768;48.578;11.574;2023-10-09T00:13:52;97127.22;;;12.67
48003;BMP280;33768;48.578;11.574;2023-10-09T00:17:01;97120.06;;;12.64
48003;BMP280;33768;48.578;11.574;2023-10-09T00:20:15;97123.31;;;12.62
48003;BMP280;33768;48.578;11.574;2023-10-09T00:23:24;97115.09;;;12.62
48003;BMP280;33768;48.578;11.574;2023-10-09T00:26:29;97117.09;;;12.62
48003;BMP280;33768;48.578;11.574;2023-10-09T00:29:36;97118.78;;;12.65
48003;BMP280;33768;48.578;11.574;2023-10-09T00:32:46;97103.13;;;12.65
48003;BMP280;33768;48.578;11.574;2023-10-09T00:36:04;97095.41;;;12.64
48003;BMP280;33768;48.578;11.574;2023-10-09T00:39:15;97092.16;;;12.65
48003;BMP280;33768;48.578;11.574;2023-10-09T00:42:26;97100.91;;;12.64
48003;BMP280;33768;48.578;11.574;2023-10-09T00:45:40;97095.50;;;12.58
48003;BMP280;33768;48.578;11.574;2023-10-09T00:48:49;97102.25;;;12.57
48003;BMP280;33768;48.578;11.574;2023-10-09T00:51:53;97093.59;;;12.53
48003;BMP280;33768;48.578;11.574;2023-10-09T00:55:00;97091.91;;;12.50
48003;BMP280;33768;48.578;11.574;2023-10-09T00:58:31;97074.06;;;12.44
48003;BMP280;33768;48.578;11.574;2023-10-09T01:01:41;97076.91;;;12.39
48003;BMP280;33768;48.578;11.574;2023-10-09T01:05:00;97084.69;;;12.35
48003;BMP280;33768;48.578;11.574;2023-10-09T01:08:14;97085.72;;;12.32
48003;BMP280;33768;48.578;11.574;2023-10-09T01:11:20;97086.03;;;12.28
48003;BMP280;33768;48.578;11.574;2023-10-09T01:14:27;97077.31;;;12.30
48003;BMP280;33768;48.578;11.574;2023-10-09T01:17:32;97078.03;;;12.30
48003;BMP280;33768;48.578;11.574;2023-10-09T01:20:39;97072.56;;;12.30
48003;BMP280;33768;48.578;11.574;2023-10-09T01:23:49;97067.81;;;12.31
48003;BMP280;33768;48.578;11.574;2023-10-09T01:27:12;97070.06;;;12.32
48003;BMP280;33768;48.578;11.574;2023-10-09T01:30:18;97065.00;;;12.36
48003;BMP280;33768;48.578;11.574;2023-10-09T01:33:23;97063.94;;;12.39
48003;BMP280;33768;48.578;11.574;2023-10-09T01:36:30;97060.16;;;12.42
48003;BMP280;33768;48.578;11.574;2023-10-09T01:39:41;97055.97;;;12.41
48003;BMP280;33768;48.578;11.574;2023-10-09T01:42:46;97054.50;;;12.40
48003;BMP280;33768;48.578;11.574;2023-10-09T01:45:51;97055.97;;;12.41
48003;BMP280;33768;48.578;11.574;2023-10-09T01:48:56;97050.94;;;12.45
48003;BMP280;33768;48.578;11.574;2023-10-09T01:52:03;97049.16;;;12.48
48003;BMP280;33768;48.578;11.574;2023-10-09T01:55:13;97044.09;;;12.51
48003;BMP280;33768;48.578;11.574;2023-10-09T01:58:38;97049.28;;;12.55
48003;BMP280;33768;48.578;11.574;2023-10-09T02:01:44;97048.22;;;12.58
48003;BMP280;33768;48.578;11.574;2023-10-09T02:04:55;97047.91;;;12.61
48003;BMP280;33768;48.578;11.574;2023-10-09T02:08:10;97035.69;;;12.62
48003;BMP280;33768;48.578;11.574;2023-10-09T02:11:15;97038.41;;;12.62
48003;BMP280;33768;48.578;11.574;2023-10-09T02:14:28;97040.41;;;12.62
48003;BMP280;33768;48.578;11.574;2023-10-09T02:17:33;97039.91;;;12.63
48003;BMP280;33768;48.578;11.574;2023-10-09T02:20:38;97044.84;;;12.65
48003;BMP280;33768;48.578;11.574;2023-10-09T02:23:43;97036.84;;;12.67
48003;BMP280;33768;48.578;11.574;2023-10-09T02:27:01;97041.38;;;12.64
48003;BMP280;33768;48.578;11.574;2023-10-09T02:30:11;97028.22;;;12.63
48003;BMP280;33768;48.578;11.574;2023-10-09T02:33:36;97018.31;;;12.60
48003;BMP280;33768;48.578;11.574;2023-10-09T02:36:43;97028.00;;;12.61
48003;BMP280;33768;48.578;11.574;2023-10-09T02:39:52;97009.16;;;12.57
48003;BMP280;33768;48.578;11.574;2023-10-09T02:42:57;97003.97;;;12.54
48003;BMP280;33768;48.578;11.574;2023-10-09T02:46:02;97001.97;;;12.54
48003;BMP280;33768;48.578;11.574;2023-10-09T02:49:19;96991.78;;;12.55
48003;BMP280;33768;48.578;11.574;2023-10-09T02:52:25;96991.78;;;12.55
48003;BMP280;33768;48.578;11.574;2023-10-09T02:55:30;96987.75;;;12.56
48003;BMP280;33768;48.578;11.574;2023-10-09T02:58:35;96999.97;;;12.55
48003;BMP280;33768;48.578;11.574;2023-10-09T03:01:41;96995.53;;;12.52
48003;BMP280;33768;48.578;11.574;2023-10-09T03:04:46;96998.06;;;12.50
48003;BMP280;33768;48.578;11.574;2023-10-09T03:07:50;96986.38;;;12.49
48003;BMP280;33768;48.578;11.574;2023-10-09T03:10:57;96980.47;;;12.46
48003;BMP280;33768;48.578;11.574;2023-10-09T03:14:06;96971.81;;;12.42
48003;BMP280;33768;48.578;11.574;2023-10-09T03:17:10;96975.75;;;12.46
48003;BMP280;33768;48.578;11.574;2023-10-09T03:20:17;96977.19;;;12.47
48003;BMP280;33768;48.578;11.574;2023-10-09T03:23:23;96972.16;;;12.51
48003;BMP280;33768;48.578;11.574;2023-10-09T03:26:27;96974.06;;;12.56
48003;BMP280;33768;48.578;11.574;2023-10-09T03:29:35;96969.53;;;12.58
48003;BMP280;33768;48.578;11.574;2023-10-09T03:32:41;96972.19;;;12.64
48003;BMP280;33768;48.578;11.574;2023-10-09T03:35:45;96966.38;;;12.67
48003;BMP280;33768;48.578;11.574;2023-10-09T03:38:50;96961.13;;;12.69
48003;BMP280;33768;48.578;11.574;2023-10-09T03:41:58;96964.72;;;12.77
48003;BMP280;33768;48.578;11.574;2023-10-09T03:45:03;96959.69;;;12.81
48003;BMP280;33768;48.578;11.574;2023-10-09T03:48:18;96956.31;;;12.88
48003;BMP280;33768;48.578;11.574;2023-10-09T03:52:02;96956.19;;;12.93
48003;BMP280;33768;48.578;11.574;2023-10-09T03:55:07;96951.34;;;12.99
48003;BMP280;33768;48.578;11.574;2023-10-09T03:58:17;96958.09;;;13.11
48003;BMP280;33768;48.578;11.574;2023-10-09T04:01:23;96957.75;;;13.14
48003;BMP280;33768;48.578;11.574;2023-10-09T04:04:33;96960.19;;;13.18
48003;BMP280;33768;48.578;11.574;2023-10-09T04:07:42;96958.59;;;13.22
48003;BMP280;33768;48.578;11.574;2023-10-09T04:10:46;96961.53;;;13.24
48003;BMP280;33768;48.578;11.574;2023-10-09T04:13:57;96950.16;;;13.20
48003;BMP280;33768;48.578;11.574;2023-10-09T04:17:04;96961.22;;;13.15
48003;BMP280;33768;48.578;11.574;2023-10-09T04:20:12;96961.88;;;13.08
48003;BMP280;33768;48.578;11.574;2023-10-09T04:23:22;96966.53;;;13.00
48003;BMP280;33768;48.578;11.574;2023-10-09T04:26:43;96964.63;;;12.95
48003;BMP280;33768;48.578;11.574;2023-10-09T04:29:52;96962.19;;;12.92
48003;BMP280;33768;48.578;11.574;2023-10-09T04:32:58;96968.75;;;12.89
48003;BMP280;33768;48.578;11.574;2023-10-09T04:36:09;96959.34;;;12.84
48003;BMP280;33768;48.578;11.574;2023-10-09T04:39:27;96959.13;;;12.82
48003;BMP280;33768;48.578;11.574;2023-10-09T04:42:34;96955.47;;;12.80
48003;BMP280;33768;48.578;11.574;2023-10-09T04:46:31;96951.69;;;12.83
48003;BMP280;33768;48.578;11.574;2023-10-09T04:49:48;96951.97;;;12.80
48003;BMP280;33768;48.578;11.574;2023-10-09T04:52:54;96954.56;;;12.72
48003;BMP280;33768;48.578;11.574;2023-10-09T04:56:02;96948.16;;;12.70
48003;BMP280;33768;48.578;11.574;2023-10-09T04:59:10;96944.16;;;12.71
48003;BMP280;33768;48.578;11.574;2023-10-09T05:02:23;96949.78;;;12.78
48003;BMP280;33768;48.578;11.574;2023-10-09T05:05:28;96937.22;;;12.82
48003;BMP280;33768;48.578;11.574;2023-10-09T05:08:47;96933.56;;;12.93
48003;BMP280;33768;48.578;11.574;2023-10-09T05:11:53;96936.56;;;13.02
48003;BMP280;33768;48.578;11.574;2023-10-09T05:14:58;96932.78;;;13.18
48003;BMP280;33768;48.578;11.574;2023-10-09T05:18:17;96934.63;;;13.36
48003;BMP280;33768;48.578;11.574;2023-10-09T05:21:29;96930.78;;;13.51
48003;BMP280;33768;48.578;11.574;2023-10-09T05:24:34;96927.59;;;13.60
48003;BMP280;33768;48.578;11.574;2023-10-09T05:27:50;96933.22;;;13.75
48003;BMP280;33768;48.578;11.574;2023-10-09T05:31:02;96923.81;;;13.83
48003;BMP280;33768;48.578;11.574;2023-10-09T05:34:13;96926.44;;;13.89
48003;BMP280;33768;48.578;11.574;2023-10-09T05:37:29;96930.09;;;13.91
48003;BMP280;33768;48.578;11.574;2023-10-09T05:40:36;96916.91;;;13.90
48003;BMP280;33768;48.578;11.574;2023-10-09T05:43:41;96920.81;;;13.94
48003;BMP280;33768;48.578;11.574;2023-10-09T05:47:04;96922.25;;;13.95
48003;BMP280;33768;48.578;11.574;2023-10-09T05:50:33;96921.09;;;14.04
48003;BMP280;33768;48.578;11.574;2023-10-09T05:53:38;96917.66;;;14.10
48003;BMP280;33768;48.578;11.574;2023-10-09T05:56:49;96927.03;;;14.15
48003;BMP280;33768;48.578;11.574;2023-10-09T06:00:12;96919.75;;;14.17
48003;BMP280;33768;48.578;11.574;2023-10-09T06:07:43;96928.41;;;14.21
48003;BMP280;33768;48.578;11.574;2023-10-09T06:11:09;96931.66;;;14.20
48003;BMP280;33768;48.578;11.574;2023-10-09T06:14:31;96933.88;;;14.21
48003;BMP280;33768;48.578;11.574;2023-10-09T06:17:38;96937.00;;;14.25
48003;BMP280;33768;48.578;11.574;2023-10-09T06:20:55;96940.22;;;14.37
48003;BMP280;33768;48.578;11.574;2023-10-09T06:24:13;96934.59;;;14.42
48003;BMP280;33768;48.578;11.574;2023-10-09T06:27:21;96941.75;;;14.45
48003;BMP280;33768;48.578;11.574;2023-10-09T06:30:34;96923.31;;;14.53
48003;BMP280;33768;48.578;11.574;2023-10-09T06:33:39;96938.09;;;14.70
48003;BMP280;33768;48.578;11.574;2023-10-09T06:37:03;96937.13;;;14.95
48003;BMP280;33768;48.578;11.574;2023-10-09T06:40:21;96925.53;;;15.17
48003;BMP280;33768;48.578;11.574;2023-10-09T06:43:41;96930.22;;;15.44
48003;BMP280;33768;48.578;11.574;2023-10-09T06:46:48;96945.00;;;15.68
48003;BMP280;33768;48.578;11.574;2023-10-09T06:49:56;96939.16;;;15.87
48003;BMP280;33768;48.578;11.574;2023-10-09T06:53:19;96930.22;;;16.08
48003;BMP280;33768;48.578;11.574;2023-10-09T06:56:26;96937.75;;;16.30
48003;BMP280;33768;48.578;11.574;2023-10-09T06:59:33;96935.38;;;16.49
48003;BMP280;33768;48.578;11.574;2023-10-09T07:02:57;96939.41;;;16.70
48003;BMP280;33768;48.578;11.574;2023-10-09T07:06:09;96940.66;;;16.91
48003;BMP280;33768;48.578;11.574;2023-10-09T07:09:27;96939.53;;;17.16
48003;BMP280;33768;48.578;11.574;2023-10-09T07:12:46;96944.88;;;17.53
48003;BMP280;33768;48.578;11.574;2023-10-09T07:15:57;96941.63;;;17.79
48003;BMP280;33768;48.578;11.574;2023-10-09T07:19:20;96947.06;;;17.93
48003;BMP280;33768;48.578;11.574;2023-10-09T07:23:04;96952.00;;;18.02
48003;BMP280;33768;48.578;11.574;2023-10-09T07:26:20;96950.72;;;18.03
48003;BMP280;33768;48.578;11.574;2023-10-09T07:29:29;96958.06;;;18.08
48003;BMP280;33768;48.578;11.574;2023-10-09T07:32:33;96949.22;;;18.10
48003;BMP280;33768;48.578;11.574;2023-10-09T07:38:47;96976.16;;;18.26
48003;BMP280;33768;48.578;11.574;2023-10-09T07:41:59;96969.84;;;18.33
48003;BMP280;33768;48.578;11.574;2023-10-09T07:45:18;96968.91;;;18.38
48003;BMP280;33768;48.578;11.574;2023-10-09T07:48:24;96979.06;;;18.35
48003;BMP280;33768;48.578;11.574;2023-10-09T07:51:29;96980.69;;;18.38
48003;BMP280;33768;48.578;11.574;2023-10-09T07:54:36;96989.09;;;18.48
48003;BMP280;33768;48.578;11.574;2023-10-09T08:01:15;96975.66;;;18.68
48003;BMP280;33768;48.578;11.574;2023-10-09T08:04:20;96992.50;;;18.79
48003;BMP280;33768;48.578;11.574;2023-10-09T08:07:41;96993.94;;;18.88
48003;BMP280;33768;48.578;11.574;2023-10-09T08:10:58;96992.75;;;18.98
48003;BMP280;33768;48.578;11.574;2023-10-09T08:14:23;97001.28;;;19.10
48003;BMP280;33768;48.578;11.574;2023-10-09T08:17:39;97008.97;;;19.18
48003;BMP280;33768;48.578;11.574;2023-10-09T08:20:43;97007.25;;;19.23
48003;BMP280;33768;48.578;11.574;2023-10-09T08:24:06;96992.28;;;19.26
48003;BMP280;33768;48.578;11.574;2023-10-09T08:27:30;97000.19;;;19.29
48003;BMP280;33768;48.578;11.574;2023-10-09T08:30:34;97002.94;;;19.29
48003;BMP280;33768;48.578;11.574;2023-10-09T08:33:55;97014.50;;;19.35
48003;BMP280;33768;48.578;11.574;2023-10-09T08:37:02;97004.44;;;19.30
48003;BMP280;33768;48.578;11.574;2023-10-09T08:40:07;97008.72;;;19.24
48003;BMP280;33768;48.578;11.574;2023-10-09T08:43:17;97006.13;;;19.26
48003;BMP280;33768;48.578;11.574;2023-10-09T08:46:26;97007.59;;;19.27
48003;BMP280;33768;48.578;11.574;2023-10-09T08:49:35;97007.69;;;19.36
48003;BMP280;33768;48.578;11.574;2023-10-09T08:52:39;97007.44;;;19.42
48003;BMP280;33768;48.578;11.574;2023-10-09T08:55:43;97009.94;;;19.47
48003;BMP280;33768;48.578;11.574;2023-10-09T08:58:51;97019.56;;;19.46
48003;BMP280;33768;48.578;11.574;2023-10-09T09:01:55;97014.03;;;19.46
48003;BMP280;33768;48.578;11.574;2023-10-09T09:05:16;97017.44;;;19.37
48003;BMP280;33768;48.578;11.574;2023-10-09T09:08:25;97010.63;;;19.38
48003;BMP280;33768;48.578;11.574;2023-10-09T09:11:40;97012.72;;;19.30
48003;BMP280;33768;48.578;11.574;2023-10-09T09:14:52;97014.50;;;19.35
48003;BMP280;33768;48.578;11.574;2023-10-09T09:18:07;97022.66;;;19.33
48003;BMP280;33768;48.578;11.574;2023-10-09T09:21:19;97032.25;;;19.32
48003;BMP280;33768;48.578;11.574;2023-10-09T09:24:31;97030.19;;;19.33
48003;BMP280;33768;48.578;11.574;2023-10-09T09:27:46;97037.06;;;19.32
48003;BMP280;33768;48.578;11.574;2023-10-09T09:31:06;97035.19;;;19.34
48003;BMP280;33768;48.578;11.574;2023-10-09T09:34:17;97031.44;;;19.39
48003;BMP280;33768;48.578;11.574;2023-10-09T09:37:24;97030.31;;;19.42
48003;BMP280;33768;48.578;11.574;2023-10-09T09:40:32;97037.06;;;19.48
48003;BMP280;33768;48.578;11.574;2023-10-09T09:43:45;97036.16;;;19.63
48003;BMP280;33768;48.578;11.574;2023-10-09T09:46:51;97031.59;;;19.74
48003;BMP280;33768;48.578;11.574;2023-10-09T09:49:57;97027.69;;;19.94
48003;BMP280;33768;48.578;11.574;2023-10-09T09:53:07;97022.69;;;20.09
48003;BMP280;33768;48.578;11.574;2023-10-09T09:56:15;97021.13;;;20.16
48003;BMP280;33768;48.578;11.574;2023-10-09T09:59:26;97021.22;;;20.35
48003;BMP280;33768;48.578;11.574;2023-10-09T10:02:36;97022.78;;;20.54
48003;BMP280;33768;48.578;11.574;2023-10-09T10:05:42;97035.03;;;20.77
48003;BMP280;33768;48.578;11.574;2023-10-09T10:08:50;97028.22;;;20.97
48003;BMP280;33768;48.578;11.574;2023-10-09T10:11:55;97028.72;;;21.12
48003;BMP280;33768;48.578;11.574;2023-10-09T10:15:04;97030.69;;;21.38
48003;BMP280;33768;48.578;11.574;2023-10-09T10:19:10;97052.34;;;21.86
48003;BMP280;33768;48.578;11.574;2023-10-09T10:22:24;97049.13;;;21.52
48003;BMP280;33768;48.578;11.574;2023-10-09T10:25:32;97044.81;;;21.33
48003;BMP280;33768;48.578;11.574;2023-10-09T10:28:39;97039.28;;;21.33
48003;BMP280;33768;48.578;11.574;2023-10-09T10:32:57;97049.69;;;21.41
48003;BMP280;33768;48.578;11.574;2023-10-09T10:36:13;97050.44;;;21.51
48003;BMP280;33768;48.578;11.574;2023-10-09T10:39:26;97053.22;;;21.61
48003;BMP280;33768;48.578;11.574;2023-10-09T10:43:00;97037.13;;;21.68
48003;BMP280;33768;48.578;11.574;2023-10-09T10:46:15;97044.31;;;21.62
48003;BMP280;33768;48.578;11.574;2023-10-09T10:49:20;97041.94;;;21.59
48003;BMP280;33768;48.578;11.574;2023-10-09T10:52:26;97040.19;;;21.54
48003;BMP280;33768;48.578;11.574;2023-10-09T10:55:54;97037.25;;;21.52
48003;BMP280;33768;48.578;11.574;2023-10-09T10:59:01;97032.88;;;21.49
48003;BMP280;33768;48.578;11.574;2023-10-09T11:02:11;97036.53;;;21.42
48003;BMP280;33768;48.578;11.574;2023-10-09T11:05:16;97035.00;;;21.32
48003;BMP280;33768;48.578;11.574;2023-10-09T11:08:29;97021.69;;;21.11
48003;BMP280;33768;48.578;11.574;2023-10-09T11:11:36;97019.31;;;20.89
48003;BMP280;33768;48.578;11.574;2023-10-09T11:14:47;97015.78;;;20.89
48003;BMP280;33768;48.578;11.574;2023-10-09T11:18:11;97013.75;;;20.99
48003;BMP280;33768;48.578;11.574;2023-10-09T11:21:25;97000.94;;;21.22
48003;BMP280;33768;48.578;11.574;2023-10-09T11:25:00;96998.25;;;21.59
48003;BMP280;33768;48.578;11.574;2023-10-09T11:28:21;97001.75;;;21.88
48003;BMP280;33768;48.578;11.574;2023-10-09T11:32:03;97004.22;;;22.12
48003;BMP280;33768;48.578;11.574;2023-10-09T11:35:13;96997.00;;;22.27
48003;BMP280;33768;48.578;11.574;2023-10-09T11:38:21;97001.78;;;22.46
48003;BMP280;33768;48.578;11.574;2023-10-09T11:41:27;96987.81;;;22.55
48003;BMP280;33768;48.578;11.574;2023-10-09T11:44:41;96976.75;;;22.46
48003;BMP280;33768;48.578;11.574;2023-10-09T11:47:53;96983.31;;;22.50
48003;BMP280;33768;48.578;11.574;2023-10-09T11:51:04;96976.31;;;22.40
48003;BMP280;33768;48.578;11.574;2023-10-09T11:54:33;96985.59;;;22.24
48003;BMP280;33768;48.578;11.574;2023-10-09T11:57:38;96991.19;;;22.14
48003;BMP280;33768;48.578;11.574;2023-10-09T12:00:42;96997.94;;;22.11
48003;BMP280;33768;48.578;11.574;2023-10-09T12:03:50;97002.75;;;22.01
48003;BMP280;33768;48.578;11.574;2023-10-09T12:06:56;96994.00;;;21.86
48003;BMP280;33768;48.578;11.574;2023-10-09T12:10:13;96989.19;;;21.77
48003;BMP280;33768;48.578;11.574;2023-10-09T12:13:18;96978.66;;;21.66
48003;BMP280;33768;48.578;11.574;2023-10-09T12:16:24;96989.91;;;21.50
48003;BMP280;33768;48.578;11.574;2023-10-09T12:19:36;96977.94;;;21.38
48003;BMP280;33768;48.578;11.574;2023-10-09T12:22:40;96977.91;;;21.19
48003;BMP280;33768;48.578;11.574;2023-10-09T12:25:45;96969.97;;;20.97
48003;BMP280;33768;48.578;11.574;2023-10-09T12:28:49;96963.19;;;20.72
48003;BMP280;33768;48.578;11.574;2023-10-09T12:31:54;96974.03;;;20.51
48003;BMP280;33768;48.578;11.574;2023-10-09T12:35:02;96945.44;;;20.23
48003;BMP280;33768;48.578;11.574;2023-10-09T12:38:06;96939.22;;;19.96
48003;BMP280;33768;48.578;11.574;2023-10-09T12:41:17;96927.50;;;19.72
48003;BMP280;33768;48.578;11.574;2023-10-09T12:44:30;96921.34;;;19.47
48003;BMP280;33768;48.578;11.574;2023-10-09T12:47:34;96942.78;;;19.30
48003;BMP280;33768;48.578;11.574;2023-10-09T12:50:42;96933.75;;;19.12
48003;BMP280;33768;48.578;11.574;2023-10-09T12:53:48;96956.06;;;19.14
48003;BMP280;33768;48.578;11.574;2023-10-09T12:57:00;96966.50;;;19.23
48003;BMP280;33768;48.578;11.574;2023-10-09T13:00:05;96970.72;;;19.24
48003;BMP280;33768;48.578;11.574;2023-10-09T13:03:16;96968.34;;;19.21
48003;BMP280;33768;48.578;11.574;2023-10-09T13:06:21;96972.66;;;19.14
48003;BMP280;33768;48.578;11.574;2023-10-09T13:09:28;96984.72;;;19.26
48003;BMP280;33768;48.578;11.574;2023-10-09T13:12:40;96996.78;;;19.38
48003;BMP280;33768;48.578;11.574;2023-10-09T13:15:45;97002.69;;;19.35
48003;BMP280;33768;48.578;11.574;2023-10-09T13:18:54;97013.03;;;19.34
48003;BMP280;33768;48.578;11.574;2023-10-09T13:21:58;96994.22;;;19.33
48003;BMP280;33768;48.578;11.574;2023-10-09T13:25:26;97009.22;;;19.30
48003;BMP280;33768;48.578;11.574;2023-10-09T13:29:27;97000.59;;;19.26
48003;BMP280;33768;48.578;11.574;2023-10-09T13:32:33;96992.84;;;19.24
48003;BMP280;33768;48.578;11.574;2023-10-09T13:35:41;96975.59;;;19.33
48003;BMP280;33768;48.578;11.574;2023-10-09T13:38:56;96949.47;;;19.43
48003;BMP280;33768;48.578;11.574;2023-10-09T13:42:00;96930.81;;;19.44
48003;BMP280;33768;48.578;11.574;2023-10-09T13:45:11;96933.41;;;19.59
48003;BMP280;33768;48.578;11.574;2023-10-09T13:48:19;96933.44;;;19.85
48003;BMP280;33768;48.578;11.574;2023-10-09T13:51:25;96914.47;;;20.07
48003;BMP280;33768;48.578;11.574;2023-10-09T13:54:29;96923.81;;;20.12
48003;BMP280;33768;48.578;11.574;2023-10-09T13:57:36;96933.03;;;20.14
48003;BMP280;33768;48.578;11.574;2023-10-09T14:00:41;96927.94;;;20.20
48003;BMP280;33768;48.578;11.574;2023-10-09T14:03:48;96933.06;;;20.24
48003;BMP280;33768;48.578;11.574;2023-10-09T14:06:54;96935.84;;;20.24
48003;BMP280;33768;48.578;11.574;2023-10-09T14:10:03;96935.69;;;20.22
48003;BMP280;33768;48.578;11.574;2023-10-09T14:13:11;96939.34;;;20.24
48003;BMP280;33768;48.578;11.574;2023-10-09T14:16:16;96939.91;;;20.23
48003;BMP280;33768;48.578;11.574;2023-10-09T14:19:31;96932.59;;;20.18
48003;BMP280;33768;48.578;11.574;2023-10-09T14:22:37;96932.47;;;20.16
48003;BMP280;33768;48.578;11.574;2023-10-09T14:25:44;96927.59;;;20.07
48003;BMP280;33768;48.578;11.574;2023-10-09T14:28:50;96927.84;;;20.02
48003;BMP280;33768;48.578;11.574;2023-10-09T14:31:59;96920.53;;;19.97
48003;BMP280;33768;48.578;11.574;2023-10-09T14:35:04;96916.34;;;20.05
48003;BMP280;33768;48.578;11.574;2023-10-09T14:38:16;96919.53;;;20.02
48003;BMP280;33768;48.578;11.574;2023-10-09T14:41:23;96908.47;;;20.02
48003;BMP280;33768;48.578;11.574;2023-10-09T14:44:29;96906.59;;;20.04
48003;BMP280;33768;48.578;11.574;2023-10-09T14:47:34;96901.03;;;20.04
48003;BMP280;33768;48.578;11.574;2023-10-09T14:50:49;96896.66;;;20.01
48003;BMP280;33768;48.578;11.574;2023-10-09T14:53:56;96896.91;;;19.96
48003;BMP280;33768;48.578;11.574;2023-10-09T14:57:07;96899.94;;;19.90
48003;BMP280;33768;48.578;11.574;2023-10-09T15:00:11;96887.97;;;19.88
48003;BMP280;33768;48.578;11.574;2023-10-09T15:03:18;96902.41;;;19.86
48003;BMP280;33768;48.578;11.574;2023-10-09T15:06:24;96897.28;;;19.83
48003;BMP280;33768;48.578;11.574;2023-10-09T15:09:28;96895.97;;;19.84
48003;BMP280;33768;48.578;11.574;2023-10-09T15:12:33;96881.53;;;19.85
48003;BMP280;33768;48.578;11.574;2023-10-09T15:15:43;96891.91;;;19.85
48003;BMP280;33768;48.578;11.574;2023-10-09T15:18:48;96882.69;;;19.82
48003;BMP280;33768;48.578;11.574;2023-10-09T15:21:57;96882.22;;;19.76
48003;BMP280;33768;48.578;11.574;2023-10-09T15:25:03;96885.50;;;19.66
48003;BMP280;33768;48.578;11.574;2023-10-09T15:28:11;96880.19;;;19.60
48003;BMP280;33768;48.578;11.574;2023-10-09T15:31:16;96868.25;;;19.58
48003;BMP280;33768;48.578;11.574;2023-10-09T15:34:21;96865.00;;;19.52
48003;BMP280;33768;48.578;11.574;2023-10-09T15:37:35;96858.28;;;19.45
48003;BMP280;33768;48.578;11.574;2023-10-09T15:40:39;96862.84;;;19.34
48003;BMP280;33768;48.578;11.574;2023-10-09T15:43:47;96865.47;;;19.32
48003;BMP280;33768;48.578;11.574;2023-10-09T15:46:51;96873.69;;;19.22
48003;BMP280;33768;48.578;11.574;2023-10-09T15:50:04;96871.69;;;19.23
48003;BMP280;33768;48.578;11.574;2023-10-09T15:53:08;96869.31;;;19.19
48003;BMP280;33768;48.578;11.574;2023-10-09T15:56:14;96871.59;;;19.13
48003;BMP280;33768;48.578;11.574;2023-10-09T15:59:25;96873.00;;;19.05
48003;BMP280;33768;48.578;11.574;2023-10-09T16:02:29;96877.84;;;18.97
48003;BMP280;33768;48.578;11.574;2023-10-09T16:05:33;96886.06;;;18.88
48003;BMP280;33768;48.578;11.574;2023-10-09T16:08:41;96887.03;;;18.83
48003;BMP280;33768;48.578;11.574;2023-10-09T16:11:51;96887.50;;;18.72
48003;BMP280;33768;48.578;11.574;2023-10-09T16:14:58;96884.72;;;18.55
48003;BMP280;33768;48.578;11.574;2023-10-09T16:18:02;96891.34;;;18.36
48003;BMP280;33768;48.578;11.574;2023-10-09T16:21:10;96874.16;;;18.20
48003;BMP280;33768;48.578;11.574;2023-10-09T16:24:16;96867.84;;;18.03
48003;BMP280;33768;48.578;11.574;2023-10-09T16:27:21;96861.50;;;17.86
48003;BMP280;33768;48.578;11.574;2023-10-09T16:30:28;96858.69;;;17.69
48003;BMP280;33768;48.578;11.574;2023-10-09T16:33:33;96863.72;;;17.56
48003;BMP280;33768;48.578;11.574;2023-10-09T16:36:38;96861.63;;;17.40
48003;BMP280;33768;48.578;11.574;2023-10-09T16:39:42;96848.94;;;17.37
48003;BMP280;33768;48.578;11.574;2023-10-09T16:42:49;96855.38;;;17.39
48003;BMP280;33768;48.578;11.574;2023-10-09T16:45:54;96860.53;;;17.35
48003;BMP280;33768;48.578;11.574;2023-10-09T16:49:03;96867.13;;;17.40
48003;BMP280;33768;48.578;11.574;2023-10-09T16:57:07;96875.19;;;17.45
48003;BMP280;33768;48.578;11.574;2023-10-09T17:00:16;96876.66;;;17.46
48003;BMP280;33768;48.578;11.574;2023-10-09T17:03:32;96872.84;;;17.42
48003;BMP280;33768;48.578;11.574;2023-10-09T17:06:39;96880.97;;;17.32
48003;BMP280;33768;48.578;11.574;2023-10-09T17:09:49;96875.31;;;17.23
48003;BMP280;33768;48.578;11.574;2023-10-09T17:12:57;96883.44;;;17.14
48003;BMP280;33768;48.578;11.574;2023-10-09T17:16:02;96865.59;;;17.07
48003;BMP280;33768;48.578;11.574;2023-10-09T17:19:07;96869.28;;;17.02
48003;BMP280;33768;48.578;11.574;2023-10-09T17:22:13;96874.06;;;17.02
48003;BMP280;33768;48.578;11.574;2023-10-09T17:25:17;96879.78;;;17.04
48003;BMP280;33768;48.578;11.574;2023-10-09T17:28:21;96874.59;;;17.08
48003;BMP280;33768;48.578;11.574;2023-10-09T17:31:25;96871.50;;;17.04
48003;BMP280;33768;48.578;11.574;2023-10-09T17:34:31;96867.09;;;17.01
48003;BMP280;33768;48.578;11.574;2023-10-09T17:37:38;96865.84;;;16.94
48003;BMP280;33768;48.578;11.574;2023-10-09T17:40:46;96863.28;;;16.89
48003;BMP280;33768;48.578;11.574;2023-10-09T17:43:55;96873.75;;;16.90
48003;BMP280;33768;48.578;11.574;2023-10-09T17:47:02;96877.97;;;16.91
48003;BMP280;33768;48.578;11.574;2023-10-09T17:50:10;96882.75;;;16.91
48003;BMP280;33768;48.578;11.574;2023-10-09T17:53:15;96882.41;;;16.87
48003;BMP280;33768;48.578;11.574;2023-10-09T17:56:28;96885.75;;;16.78
48003;BMP280;33768;48.578;11.574;2023-10-09T17:59:38;96892.53;;;16.77
48003;BMP280;33768;48.578;11.574;2023-10-09T18:02:42;96892.19;;;16.73
48003;BMP280;33768;48.578;11.574;2023-10-09T18:05:46;96891.63;;;16.67
48003;BMP280;33768;48.578;11.574;2023-10-09T18:08:52;96886.84;;;16.60
48003;BMP280;33768;48.578;11.574;2023-10-09T18:11:56;96894.41;;;16.53
48003;BMP280;33768;48.578;11.574;2023-10-09T18:15:00;96900.84;;;16.48
48003;BMP280;33768;48.578;11.574;2023-10-09T18:18:09;96884.69;;;16.44